KLUF/LUF METAR and TAF weather

Enter ICAO airport designator
Station Type Date Time Source
KLUF METAR 2021/07/30 05:58 UTC NOAA

KLUF 300558Z AUTO 05005KT 10SM BKN190 32/18 A2987 RMK AO2 SLP099 T03160178 10407 20315 53008 $


Station Type Date Time Source
KLUF Decoded METAR 2021/07/30 05:58 UTC NOAA

Luke Air Force Base / Phoenix, AZ, United States (KLUF) 33-32N 112-23W 332M
Jul 30, 2021 - 01:58 AM EDT / 2021.07.30 0558 UTC
Wind: from the NE (050 degrees) at 6 MPH (5 KT):0
Visibility: 10 mile(s):0
Sky conditions: mostly cloudy
Temperature: 88.9 F (31.6 C)
Dew Point: 64.0 F (17.8 C)
Relative Humidity: 43%
Pressure (altimeter): 29.87 in. Hg (1011 hPa)
Pressure tendency: 0.02 inches (0.8 hPa) higher than three hours ago
ob: KLUF 300558Z AUTO 05005KT 10SM BKN190 32/18 A2987 RMK AO2 SLP099 T03160178 10407 20315 53008
cycle: 6

Station Type Date Time Source
KLUF TAF 2021/07/30 04:27 UTC NOAA

TAF KLUF 300400Z 3004/3110 VRB06KT 9999 SCT120 BKN200 QNH2984INS
TEMPO 3008/3011 VRB10G15KT 9000 -SHRA VCTS BKN100CB OVC150
BECMG 3100/3101 24015G20KT 9999 VCTS BKN120CB BKN200 QNH2983INS
BECMG 3103/3104 VRB06KT 9999 NSW BKN150 BKN200 QNH2989INS TX39/3022Z TN26/3013Z

Example: see airport list